sensor_id;sensor_type;location;lat;lon;timestamp;temperature;humidity
3308;DHT22;1666;48.898;9.182;2023-08-12T00:01:56;20.90;1.00
3308;DHT22;1666;48.898;9.182;2023-08-12T00:04:26;20.90;1.00
3308;DHT22;1666;48.898;9.182;2023-08-12T00:06:56;20.90;1.00
3308;DHT22;1666;48.898;9.182;2023-08-12T00:09:25;20.80;1.00
3308;DHT22;1666;48.898;9.182;2023-08-12T00:11:55;20.80;1.00
3308;DHT22;1666;48.898;9.182;2023-08-12T00:14:28;20.90;1.00
3308;DHT22;1666;48.898;9.182;2023-08-12T00:16:58;20.90;1.00
3308;DHT22;1666;48.898;9.182;2023-08-12T00:19:29;20.70;1.00
3308;DHT22;1666;48.898;9.182;2023-08-12T00:21:59;20.60;1.00
3308;DHT22;1666;48.898;9.182;2023-08-12T00:24:31;20.50;1.00
3308;DHT22;1666;48.898;9.182;2023-08-12T00:27:01;20.40;1.00
3308;DHT22;1666;48.898;9.182;2023-08-12T00:29:34;20.30;1.00
3308;DHT22;1666;48.898;9.182;2023-08-12T00:32:04;20.30;1.00
3308;DHT22;1666;48.898;9.182;2023-08-12T00:34:34;20.20;1.00
3308;DHT22;1666;48.898;9.182;2023-08-12T00:37:04;20.30;1.00
3308;DHT22;1666;48.898;9.182;2023-08-12T00:39:35;20.30;1.00
3308;DHT22;1666;48.898;9.182;2023-08-12T00:42:05;20.40;1.00
3308;DHT22;1666;48.898;9.182;2023-08-12T00:44:38;20.50;1.00
3308;DHT22;1666;48.898;9.182;2023-08-12T00:47:08;20.60;1.00
3308;DHT22;1666;48.898;9.182;2023-08-12T00:49:40;20.50;1.00
3308;DHT22;1666;48.898;9.182;2023-08-12T00:52:12;20.50;1.00
3308;DHT22;1666;48.898;9.182;2023-08-12T00:54:42;20.50;1.00
3308;DHT22;1666;48.898;9.182;2023-08-12T00:57:12;20.40;1.00
3308;DHT22;1666;48.898;9.182;2023-08-12T00:59:45;20.40;1.00
3308;DHT22;1666;48.898;9.182;2023-08-12T01:02:15;20.30;1.00
3308;DHT22;1666;48.898;9.182;2023-08-12T01:04:45;20.30;1.00
3308;DHT22;1666;48.898;9.182;2023-08-12T01:07:15;20.30;1.00
3308;DHT22;1666;48.898;9.182;2023-08-12T01:09:46;20.30;1.00
3308;DHT22;1666;48.898;9.182;2023-08-12T01:12:18;20.30;1.00
3308;DHT22;1666;48.898;9.182;2023-08-12T01:15:01;20.30;1.00
3308;DHT22;1666;48.898;9.182;2023-08-12T01:17:37;20.30;1.00
3308;DHT22;1666;48.898;9.182;2023-08-12T01:20:09;20.30;1.00
3308;DHT22;1666;48.898;9.182;2023-08-12T01:22:40;20.20;1.00
3308;DHT22;1666;48.898;9.182;2023-08-12T01:25:13;20.10;1.00
3308;DHT22;1666;48.898;9.182;2023-08-12T01:27:43;20.10;1.00
3308;DHT22;1666;48.898;9.182;2023-08-12T01:30:13;20.00;1.00
3308;DHT22;1666;48.898;9.182;2023-08-12T01:32:49;20.10;1.00
3308;DHT22;1666;48.898;9.182;2023-08-12T01:35:25;20.10;1.00
3308;DHT22;1666;48.898;9.182;2023-08-12T01:37:57;20.20;1.00
3308;DHT22;1666;48.898;9.182;2023-08-12T01:40:31;20.20;1.00
3308;DHT22;1666;48.898;9.182;2023-08-12T01:43:02;20.20;1.00
3308;DHT22;1666;48.898;9.182;2023-08-12T01:45:34;20.20;1.00
3308;DHT22;1666;48.898;9.182;2023-08-12T01:48:06;20.20;1.00
3308;DHT22;1666;48.898;9.182;2023-08-12T01:50:36;20.20;1.00
3308;DHT22;1666;48.898;9.182;2023-08-12T01:53:06;20.20;1.00
3308;DHT22;1666;48.898;9.182;2023-08-12T01:55:38;20.30;1.00
3308;DHT22;1666;48.898;9.182;2023-08-12T01:58:08;20.30;1.00
3308;DHT22;1666;48.898;9.182;2023-08-12T02:00:38;20.20;1.00
3308;DHT22;1666;48.898;9.182;2023-08-12T02:03:08;20.20;1.00
3308;DHT22;1666;48.898;9.182;2023-08-12T02:05:38;20.20;1.00
3308;DHT22;1666;48.898;9.182;2023-08-12T02:08:08;20.10;1.00
3308;DHT22;1666;48.898;9.182;2023-08-12T02:10:41;20.20;1.00
3308;DHT22;1666;48.898;9.182;2023-08-12T02:13:11;20.20;1.00
3308;DHT22;1666;48.898;9.182;2023-08-12T02:15:41;20.20;1.00
3308;DHT22;1666;48.898;9.182;2023-08-12T02:18:11;20.30;1.00
3308;DHT22;1666;48.898;9.182;2023-08-12T02:20:41;20.40;1.00
3308;DHT22;1666;48.898;9.182;2023-08-12T02:23:11;20.40;1.00
3308;DHT22;1666;48.898;9.182;2023-08-12T02:25:44;20.40;1.00
3308;DHT22;1666;48.898;9.182;2023-08-12T02:28:14;20.40;1.00
3308;DHT22;1666;48.898;9.182;2023-08-12T02:30:44;20.50;1.00
3308;DHT22;1666;48.898;9.182;2023-08-12T02:33:14;20.50;1.00
3308;DHT22;1666;48.898;9.182;2023-08-12T02:35:44;20.50;1.00
3308;DHT22;1666;48.898;9.182;2023-08-12T02:38:14;20.50;1.00
3308;DHT22;1666;48.898;9.182;2023-08-12T02:40:47;20.50;1.00
3308;DHT22;1666;48.898;9.182;2023-08-12T02:43:18;20.50;1.00
3308;DHT22;1666;48.898;9.182;2023-08-12T02:45:48;20.50;1.00
3308;DHT22;1666;48.898;9.182;2023-08-12T02:48:18;20.60;1.00
3308;DHT22;1666;48.898;9.182;2023-08-12T02:50:48;20.50;1.00
3308;DHT22;1666;48.898;9.182;2023-08-12T02:53:18;20.50;1.00
3308;DHT22;1666;48.898;9.182;2023-08-12T02:55:50;20.40;1.00
3308;DHT22;1666;48.898;9.182;2023-08-12T02:58:20;20.40;1.00
3308;DHT22;1666;48.898;9.182;2023-08-12T03:00:50;20.50;1.00
3308;DHT22;1666;48.898;9.182;2023-08-12T03:03:20;20.50;1.00
3308;DHT22;1666;48.898;9.182;2023-08-12T03:05:51;20.50;1.00
3308;DHT22;1666;48.898;9.182;2023-08-12T03:08:21;20.50;1.00
3308;DHT22;1666;48.898;9.182;2023-08-12T03:11:00;20.50;1.00
3308;DHT22;1666;48.898;9.182;2023-08-12T03:13:30;20.40;1.00
3308;DHT22;1666;48.898;9.182;2023-08-12T03:16:00;20.30;1.00
3308;DHT22;1666;48.898;9.182;2023-08-12T03:18:30;20.30;1.00
3308;DHT22;1666;48.898;9.182;2023-08-12T03:21:05;20.30;1.00
3308;DHT22;1666;48.898;9.182;2023-08-12T03:23:36;20.30;1.00
3308;DHT22;1666;48.898;9.182;2023-08-12T03:26:09;20.20;1.00
3308;DHT22;1666;48.898;9.182;2023-08-12T03:28:39;20.20;1.00
3308;DHT22;1666;48.898;9.182;2023-08-12T03:31:09;20.30;1.00
3308;DHT22;1666;48.898;9.182;2023-08-12T03:33:39;20.30;1.00
3308;DHT22;1666;48.898;9.182;2023-08-12T03:36:09;20.30;1.00
3308;DHT22;1666;48.898;9.182;2023-08-12T03:38:39;20.20;1.00
3308;DHT22;1666;48.898;9.182;2023-08-12T03:41:11;20.20;1.00
3308;DHT22;1666;48.898;9.182;2023-08-12T03:43:41;20.20;1.00
3308;DHT22;1666;48.898;9.182;2023-08-12T03:46:11;20.20;1.00
3308;DHT22;1666;48.898;9.182;2023-08-12T03:48:41;20.30;1.00
3308;DHT22;1666;48.898;9.182;2023-08-12T03:51:11;20.30;1.00
3308;DHT22;1666;48.898;9.182;2023-08-12T03:53:41;20.30;1.00
3308;DHT22;1666;48.898;9.182;2023-08-12T03:56:14;20.40;1.00
3308;DHT22;1666;48.898;9.182;2023-08-12T03:58:45;20.50;1.00
3308;DHT22;1666;48.898;9.182;2023-08-12T04:01:15;20.50;1.00
3308;DHT22;1666;48.898;9.182;2023-08-12T04:03:45;20.40;1.00
3308;DHT22;1666;48.898;9.182;2023-08-12T04:06:15;20.40;1.00
3308;DHT22;1666;48.898;9.182;2023-08-12T04:08:45;20.40;1.00
3308;DHT22;1666;48.898;9.182;2023-08-12T04:11:18;20.40;1.00
3308;DHT22;1666;48.898;9.182;2023-08-12T04:13:48;20.50;1.00
3308;DHT22;1666;48.898;9.182;2023-08-12T04:16:18;20.50;1.00
3308;DHT22;1666;48.898;9.182;2023-08-12T04:18:48;20.50;1.00
3308;DHT22;1666;48.898;9.182;2023-08-12T04:21:18;20.50;1.00
3308;DHT22;1666;48.898;9.182;2023-08-12T04:23:48;20.50;1.00
3308;DHT22;1666;48.898;9.182;2023-08-12T04:26:21;20.40;1.00
3308;DHT22;1666;48.898;9.182;2023-08-12T04:28:51;20.50;1.00
3308;DHT22;1666;48.898;9.182;2023-08-12T04:31:21;20.50;1.00
3308;DHT22;1666;48.898;9.182;2023-08-12T04:33:51;20.60;1.00
3308;DHT22;1666;48.898;9.182;2023-08-12T04:36:21;20.50;1.00
3308;DHT22;1666;48.898;9.182;2023-08-12T04:38:51;20.50;1.00
3308;DHT22;1666;48.898;9.182;2023-08-12T04:41:24;20.50;1.00
3308;DHT22;1666;48.898;9.182;2023-08-12T04:43:54;20.60;1.00
3308;DHT22;1666;48.898;9.182;2023-08-12T04:46:24;20.70;1.00
3308;DHT22;1666;48.898;9.182;2023-08-12T04:48:54;20.70;1.00
3308;DHT22;1666;48.898;9.182;2023-08-12T04:51:24;20.70;1.00
3308;DHT22;1666;48.898;9.182;2023-08-12T04:53:54;20.80;1.00
3308;DHT22;1666;48.898;9.182;2023-08-12T04:56:27;20.80;1.00
3308;DHT22;1666;48.898;9.182;2023-08-12T04:58:57;20.70;1.00
3308;DHT22;1666;48.898;9.182;2023-08-12T05:01:27;20.70;1.00
3308;DHT22;1666;48.898;9.182;2023-08-12T05:03:57;20.80;1.00
3308;DHT22;1666;48.898;9.182;2023-08-12T05:06:27;20.80;1.00
3308;DHT22;1666;48.898;9.182;2023-08-12T05:08:57;20.80;1.00
3308;DHT22;1666;48.898;9.182;2023-08-12T05:11:30;20.80;1.00
3308;DHT22;1666;48.898;9.182;2023-08-12T05:14:00;20.90;1.00
3308;DHT22;1666;48.898;9.182;2023-08-12T05:16:29;20.90;1.00
3308;DHT22;1666;48.898;9.182;2023-08-12T05:18:59;20.90;1.00
3308;DHT22;1666;48.898;9.182;2023-08-12T05:21:29;21.00;1.00
3308;DHT22;1666;48.898;9.182;2023-08-12T05:23:59;20.90;1.00
3308;DHT22;1666;48.898;9.182;2023-08-12T05:26:33;20.80;1.00
3308;DHT22;1666;48.898;9.182;2023-08-12T05:29:03;20.90;1.00
3308;DHT22;1666;48.898;9.182;2023-08-12T05:31:33;20.90;1.00
3308;DHT22;1666;48.898;9.182;2023-08-12T05:34:04;20.90;1.00
3308;DHT22;1666;48.898;9.182;2023-08-12T05:36:35;21.00;1.00
3308;DHT22;1666;48.898;9.182;2023-08-12T05:39:05;21.00;1.00
3308;DHT22;1666;48.898;9.182;2023-08-12T05:41:37;21.00;1.00
3308;DHT22;1666;48.898;9.182;2023-08-12T05:44:07;21.20;1.00
3308;DHT22;1666;48.898;9.182;2023-08-12T05:46:37;21.20;1.00
3308;DHT22;1666;48.898;9.182;2023-08-12T05:49:07;21.20;1.00
3308;DHT22;1666;48.898;9.182;2023-08-12T05:51:37;21.20;1.00
3308;DHT22;1666;48.898;9.182;2023-08-12T05:54:08;21.20;1.00
3308;DHT22;1666;48.898;9.182;2023-08-12T05:56:41;21.20;1.00
3308;DHT22;1666;48.898;9.182;2023-08-12T05:59:10;21.10;1.00
3308;DHT22;1666;48.898;9.182;2023-08-12T06:01:40;21.10;1.00
3308;DHT22;1666;48.898;9.182;2023-08-12T06:04:11;21.20;1.00
3308;DHT22;1666;48.898;9.182;2023-08-12T06:06:41;21.30;1.00
3308;DHT22;1666;48.898;9.182;2023-08-12T06:09:11;21.20;1.00
3308;DHT22;1666;48.898;9.182;2023-08-12T06:11:44;21.30;1.00
3308;DHT22;1666;48.898;9.182;2023-08-12T06:14:14;21.10;1.00
3308;DHT22;1666;48.898;9.182;2023-08-12T06:16:44;21.20;1.00
3308;DHT22;1666;48.898;9.182;2023-08-12T06:19:14;21.30;1.00
3308;DHT22;1666;48.898;9.182;2023-08-12T06:21:44;21.10;1.00
3308;DHT22;1666;48.898;9.182;2023-08-12T06:24:14;21.00;1.00
3308;DHT22;1666;48.898;9.182;2023-08-12T06:26:46;21.00;1.00
3308;DHT22;1666;48.898;9.182;2023-08-12T06:29:17;21.00;1.00
3308;DHT22;1666;48.898;9.182;2023-08-12T06:31:47;20.80;1.00
3308;DHT22;1666;48.898;9.182;2023-08-12T06:34:17;20.80;1.00
3308;DHT22;1666;48.898;9.182;2023-08-12T06:36:47;21.00;1.00
3308;DHT22;1666;48.898;9.182;2023-08-12T06:39:17;21.00;1.00
3308;DHT22;1666;48.898;9.182;2023-08-12T06:41:49;21.00;1.00
3308;DHT22;1666;48.898;9.182;2023-08-12T06:44:19;21.20;1.00
3308;DHT22;1666;48.898;9.182;2023-08-12T06:46:49;21.30;1.00
3308;DHT22;1666;48.898;9.182;2023-08-12T06:49:19;21.40;1.00
3308;DHT22;1666;48.898;9.182;2023-08-12T06:51:49;21.60;1.00
3308;DHT22;1666;48.898;9.182;2023-08-12T06:54:19;21.70;1.00
3308;DHT22;1666;48.898;9.182;2023-08-12T06:56:52;21.70;1.00
3308;DHT22;1666;48.898;9.182;2023-08-12T06:59:22;21.90;1.00
3308;DHT22;1666;48.898;9.182;2023-08-12T07:01:52;22.10;1.00
3308;DHT22;1666;48.898;9.182;2023-08-12T07:04:22;22.10;1.00
3308;DHT22;1666;48.898;9.182;2023-08-12T07:06:53;22.10;1.00
3308;DHT22;1666;48.898;9.182;2023-08-12T07:09:23;22.10;1.00
3308;DHT22;1666;48.898;9.182;2023-08-12T07:11:55;22.40;1.00
3308;DHT22;1666;48.898;9.182;2023-08-12T07:14:25;22.70;1.00
3308;DHT22;1666;48.898;9.182;2023-08-12T07:16:55;22.90;1.00
3308;DHT22;1666;48.898;9.182;2023-08-12T07:19:25;23.50;1.00
3308;DHT22;1666;48.898;9.182;2023-08-12T07:21:55;24.00;1.00
3308;DHT22;1666;48.898;9.182;2023-08-12T07:24:25;24.40;1.00
3308;DHT22;1666;48.898;9.182;2023-08-12T07:26:58;24.60;1.00
3308;DHT22;1666;48.898;9.182;2023-08-12T07:29:28;24.60;1.00
3308;DHT22;1666;48.898;9.182;2023-08-12T07:31:58;24.60;1.00
3308;DHT22;1666;48.898;9.182;2023-08-12T07:34:28;24.60;1.00
3308;DHT22;1666;48.898;9.182;2023-08-12T07:37:00;24.60;1.00
3308;DHT22;1666;48.898;9.182;2023-08-12T07:39:30;25.30;1.00
3308;DHT22;1666;48.898;9.182;2023-08-12T07:42:03;25.40;1.00
3308;DHT22;1666;48.898;9.182;2023-08-12T07:44:33;25.70;1.00
3308;DHT22;1666;48.898;9.182;2023-08-12T07:47:03;25.50;1.00
3308;DHT22;1666;48.898;9.182;2023-08-12T07:49:33;25.30;1.00
3308;DHT22;1666;48.898;9.182;2023-08-12T07:52:04;25.40;1.00
3308;DHT22;1666;48.898;9.182;2023-08-12T07:54:35;25.40;1.00
3308;DHT22;1666;48.898;9.182;2023-08-12T07:57:07;25.50;1.00
3308;DHT22;1666;48.898;9.182;2023-08-12T07:59:37;25.80;1.00
3308;DHT22;1666;48.898;9.182;2023-08-12T08:02:07;26.00;1.00
3308;DHT22;1666;48.898;9.182;2023-08-12T08:04:38;25.90;1.00
3308;DHT22;1666;48.898;9.182;2023-08-12T08:07:08;26.20;1.00
3308;DHT22;1666;48.898;9.182;2023-08-12T08:09:38;26.20;1.00
3308;DHT22;1666;48.898;9.182;2023-08-12T08:12:11;26.50;1.00
3308;DHT22;1666;48.898;9.182;2023-08-12T08:14:41;26.50;1.00
3308;DHT22;1666;48.898;9.182;2023-08-12T08:17:11;26.80;1.00
3308;DHT22;1666;48.898;9.182;2023-08-12T08:19:41;27.10;1.00
3308;DHT22;1666;48.898;9.182;2023-08-12T08:22:11;27.10;1.00
3308;DHT22;1666;48.898;9.182;2023-08-12T08:24:41;27.40;1.00
3308;DHT22;1666;48.898;9.182;2023-08-12T08:27:14;27.00;1.00
3308;DHT22;1666;48.898;9.182;2023-08-12T08:29:44;26.40;1.00
3308;DHT22;1666;48.898;9.182;2023-08-12T08:32:14;26.70;1.00
3308;DHT22;1666;48.898;9.182;2023-08-12T08:34:44;27.30;1.00
3308;DHT22;1666;48.898;9.182;2023-08-12T08:37:13;27.30;1.00
3308;DHT22;1666;48.898;9.182;2023-08-12T08:39:43;26.90;1.00
3308;DHT22;1666;48.898;9.182;2023-08-12T08:42:18;26.70;1.00
3308;DHT22;1666;48.898;9.182;2023-08-12T08:44:52;27.10;1.00
3308;DHT22;1666;48.898;9.182;2023-08-12T08:47:27;27.10;1.00
3308;DHT22;1666;48.898;9.182;2023-08-12T08:49:58;27.30;1.00
3308;DHT22;1666;48.898;9.182;2023-08-12T08:52:28;27.30;1.00
3308;DHT22;1666;48.898;9.182;2023-08-12T08:55:00;27.60;1.00
3308;DHT22;1666;48.898;9.182;2023-08-12T08:57:37;27.60;1.00
3308;DHT22;1666;48.898;9.182;2023-08-12T09:00:15;27.40;1.00
3308;DHT22;1666;48.898;9.182;2023-08-12T09:02:46;27.60;1.00
3308;DHT22;1666;48.898;9.182;2023-08-12T09:05:17;28.20;1.00
3308;DHT22;1666;48.898;9.182;2023-08-12T09:07:49;28.40;1.00
3308;DHT22;1666;48.898;9.182;2023-08-12T09:10:21;27.80;1.00
3308;DHT22;1666;48.898;9.182;2023-08-12T09:12:58;28.00;1.00
3308;DHT22;1666;48.898;9.182;2023-08-12T09:15:29;28.10;1.00
3308;DHT22;1666;48.898;9.182;2023-08-12T09:17:59;27.20;1.00
3308;DHT22;1666;48.898;9.182;2023-08-12T09:20:29;27.10;1.00
3308;DHT22;1666;48.898;9.182;2023-08-12T09:23:00;27.50;1.00
3308;DHT22;1666;48.898;9.182;2023-08-12T09:25:30;27.80;1.00
3308;DHT22;1666;48.898;9.182;2023-08-12T09:28:05;27.90;1.00
3308;DHT22;1666;48.898;9.182;2023-08-12T09:30:35;28.00;1.00
3308;DHT22;1666;48.898;9.182;2023-08-12T09:33:06;28.10;1.00
3308;DHT22;1666;48.898;9.182;2023-08-12T09:35:39;28.40;1.00
3308;DHT22;1666;48.898;9.182;2023-08-12T09:38:12;28.50;1.00
3308;DHT22;1666;48.898;9.182;2023-08-12T09:40:44;28.00;1.00
3308;DHT22;1666;48.898;9.182;2023-08-12T09:43:18;27.80;1.00
3308;DHT22;1666;48.898;9.182;2023-08-12T09:45:56;28.40;1.00
3308;DHT22;1666;48.898;9.182;2023-08-12T09:48:26;28.20;1.00
3308;DHT22;1666;48.898;9.182;2023-08-12T09:50:56;28.40;1.00
3308;DHT22;1666;48.898;9.182;2023-08-12T09:53:27;29.00;1.00
3308;DHT22;1666;48.898;9.182;2023-08-12T09:56:00;29.20;1.00
3308;DHT22;1666;48.898;9.182;2023-08-12T09:58:39;28.80;1.00
3308;DHT22;1666;48.898;9.182;2023-08-12T10:01:11;28.30;1.00
3308;DHT22;1666;48.898;9.182;2023-08-12T10:03:41;28.30;1.00
3308;DHT22;1666;48.898;9.182;2023-08-12T10:06:13;28.60;1.00
3308;DHT22;1666;48.898;9.182;2023-08-12T10:08:46;28.50;1.00
3308;DHT22;1666;48.898;9.182;2023-08-12T10:11:16;28.10;1.00
3308;DHT22;1666;48.898;9.182;2023-08-12T10:13:49;28.00;1.00
3308;DHT22;1666;48.898;9.182;2023-08-12T10:16:19;28.00;1.00
3308;DHT22;1666;48.898;9.182;2023-08-12T10:18:50;28.10;1.00
3308;DHT22;1666;48.898;9.182;2023-08-12T10:21:21;28.40;1.00
3308;DHT22;1666;48.898;9.182;2023-08-12T10:23:53;28.40;1.00
3308;DHT22;1666;48.898;9.182;2023-08-12T10:26:24;28.40;1.00
3308;DHT22;1666;48.898;9.182;2023-08-12T10:28:57;28.60;1.00
3308;DHT22;1666;48.898;9.182;2023-08-12T10:31:29;28.20;1.00
3308;DHT22;1666;48.898;9.182;2023-08-12T10:33:59;28.00;1.00
3308;DHT22;1666;48.898;9.182;2023-08-12T10:36:31;28.00;1.00
3308;DHT22;1666;48.898;9.182;2023-08-12T10:39:08;27.80;1.00
3308;DHT22;1666;48.898;9.182;2023-08-12T10:41:38;27.70;1.00
3308;DHT22;1666;48.898;9.182;2023-08-12T10:44:11;27.70;1.00
3308;DHT22;1666;48.898;9.182;2023-08-12T10:46:50;28.70;1.00
3308;DHT22;1666;48.898;9.182;2023-08-12T10:49:21;28.70;1.00
3308;DHT22;1666;48.898;9.182;2023-08-12T10:51:52;29.30;1.00
3308;DHT22;1666;48.898;9.182;2023-08-12T10:54:24;28.80;1.00
3308;DHT22;1666;48.898;9.182;2023-08-12T10:57:11;29.10;1.00
3308;DHT22;1666;48.898;9.182;2023-08-12T10:59:51;29.20;1.00
3308;DHT22;1666;48.898;9.182;2023-08-12T11:02:26;28.80;1.00
3308;DHT22;1666;48.898;9.182;2023-08-12T11:05:00;28.80;1.00
3308;DHT22;1666;48.898;9.182;2023-08-12T11:07:37;28.50;1.00
3308;DHT22;1666;48.898;9.182;2023-08-12T11:10:13;28.80;1.00
3308;DHT22;1666;48.898;9.182;2023-08-12T11:12:48;29.60;1.00
3308;DHT22;1666;48.898;9.182;2023-08-12T11:15:30;30.00;1.00
3308;DHT22;1666;48.898;9.182;2023-08-12T11:18:03;30.30;1.00
3308;DHT22;1666;48.898;9.182;2023-08-12T11:20:34;30.30;1.00
3308;DHT22;1666;48.898;9.182;2023-08-12T11:23:05;30.70;1.00
3308;DHT22;1666;48.898;9.182;2023-08-12T11:25:38;30.50;1.00
3308;DHT22;1666;48.898;9.182;2023-08-12T11:28:08;30.20;1.00
3308;DHT22;1666;48.898;9.182;2023-08-12T11:30:43;30.50;1.00
3308;DHT22;1666;48.898;9.182;2023-08-12T11:33:16;30.60;1.00
3308;DHT22;1666;48.898;9.182;2023-08-12T11:35:47;30.40;1.00
3308;DHT22;1666;48.898;9.182;2023-08-12T11:38:18;30.30;1.00
3308;DHT22;1666;48.898;9.182;2023-08-12T11:40:50;30.40;1.00
3308;DHT22;1666;48.898;9.182;2023-08-12T11:43:21;30.30;1.00
3308;DHT22;1666;48.898;9.182;2023-08-12T11:45:55;30.20;1.00
3308;DHT22;1666;48.898;9.182;2023-08-12T11:48:26;29.90;1.00
3308;DHT22;1666;48.898;9.182;2023-08-12T11:50:57;29.60;1.00
3308;DHT22;1666;48.898;9.182;2023-08-12T11:53:27;29.20;1.00
3308;DHT22;1666;48.898;9.182;2023-08-12T11:55:57;29.00;1.00
3308;DHT22;1666;48.898;9.182;2023-08-12T11:58:35;26.20;1.00
3308;DHT22;1666;48.898;9.182;2023-08-12T12:01:22;21.90;1.00
3308;DHT22;1666;48.898;9.182;2023-08-12T12:03:52;19.80;99.90
3308;DHT22;1666;48.898;9.182;2023-08-12T12:06:29;18.80;99.90
3308;DHT22;1666;48.898;9.182;2023-08-12T12:09:05;18.80;99.90
3308;DHT22;1666;48.898;9.182;2023-08-12T12:11:37;19.20;99.90
3308;DHT22;1666;48.898;9.182;2023-08-12T12:14:08;19.40;99.90
3308;DHT22;1666;48.898;9.182;2023-08-12T12:16:42;19.60;99.90
3308;DHT22;1666;48.898;9.182;2023-08-12T12:19:15;19.50;99.90
3308;DHT22;1666;48.898;9.182;2023-08-12T12:21:47;19.60;99.90
3308;DHT22;1666;48.898;9.182;2023-08-12T12:24:18;20.10;99.90
3308;DHT22;1666;48.898;9.182;2023-08-12T12:26:49;20.50;99.90
3308;DHT22;1666;48.898;9.182;2023-08-12T12:29:20;20.30;99.90
3308;DHT22;1666;48.898;9.182;2023-08-12T12:31:52;20.10;99.90
3308;DHT22;1666;48.898;9.182;2023-08-12T12:34:22;20.10;99.90
3308;DHT22;1666;48.898;9.182;2023-08-12T12:36:52;20.30;99.90
3308;DHT22;1666;48.898;9.182;2023-08-12T12:39:22;20.50;99.90
3308;DHT22;1666;48.898;9.182;2023-08-12T12:41:52;20.50;99.90
3308;DHT22;1666;48.898;9.182;2023-08-12T12:44:22;20.60;99.90
3308;DHT22;1666;48.898;9.182;2023-08-12T12:46:55;20.60;99.90
3308;DHT22;1666;48.898;9.182;2023-08-12T12:49:25;20.40;99.90
3308;DHT22;1666;48.898;9.182;2023-08-12T12:51:55;20.50;99.90
3308;DHT22;1666;48.898;9.182;2023-08-12T12:54:25;20.60;99.90
3308;DHT22;1666;48.898;9.182;2023-08-12T12:56:56;20.90;99.90
3308;DHT22;1666;48.898;9.182;2023-08-12T12:59:26;21.20;99.90
3308;DHT22;1666;48.898;9.182;2023-08-12T13:01:59;21.30;99.90
3308;DHT22;1666;48.898;9.182;2023-08-12T13:04:29;21.50;99.90
3308;DHT22;1666;48.898;9.182;2023-08-12T13:06:59;21.40;99.90
3308;DHT22;1666;48.898;9.182;2023-08-12T13:09:29;21.40;99.90
3308;DHT22;1666;48.898;9.182;2023-08-12T13:11:59;21.30;99.90
3308;DHT22;1666;48.898;9.182;2023-08-12T13:14:29;21.20;99.90
3308;DHT22;1666;48.898;9.182;2023-08-12T13:17:01;21.10;99.90
3308;DHT22;1666;48.898;9.182;2023-08-12T13:19:31;21.20;99.90
3308;DHT22;1666;48.898;9.182;2023-08-12T13:22:02;21.20;99.90
3308;DHT22;1666;48.898;9.182;2023-08-12T13:24:32;21.30;99.90
3308;DHT22;1666;48.898;9.182;2023-08-12T13:27:03;21.60;99.90
3308;DHT22;1666;48.898;9.182;2023-08-12T13:29:34;21.70;99.90
3308;DHT22;1666;48.898;9.182;2023-08-12T13:32:07;21.40;99.90
3308;DHT22;1666;48.898;9.182;2023-08-12T13:34:38;21.70;99.90
3308;DHT22;1666;48.898;9.182;2023-08-12T13:37:10;21.80;99.90
3308;DHT22;1666;48.898;9.182;2023-08-12T13:39:40;21.70;99.90
3308;DHT22;1666;48.898;9.182;2023-08-12T13:42:10;21.70;99.90
3308;DHT22;1666;48.898;9.182;2023-08-12T13:44:40;21.80;99.90
3308;DHT22;1666;48.898;9.182;2023-08-12T13:47:13;21.90;99.90
3308;DHT22;1666;48.898;9.182;2023-08-12T13:49:43;21.70;99.90
3308;DHT22;1666;48.898;9.182;2023-08-12T13:52:13;22.00;99.90
3308;DHT22;1666;48.898;9.182;2023-08-12T13:54:43;22.30;99.90
3308;DHT22;1666;48.898;9.182;2023-08-12T13:57:13;22.30;99.90
3308;DHT22;1666;48.898;9.182;2023-08-12T13:59:43;22.20;99.90
3308;DHT22;1666;48.898;9.182;2023-08-12T14:02:17;22.50;99.90
3308;DHT22;1666;48.898;9.182;2023-08-12T14:04:47;22.80;99.90
3308;DHT22;1666;48.898;9.182;2023-08-12T14:07:17;23.50;99.90
3308;DHT22;1666;48.898;9.182;2023-08-12T14:09:48;23.80;99.90
3308;DHT22;1666;48.898;9.182;2023-08-12T14:12:18;23.90;99.90
3308;DHT22;1666;48.898;9.182;2023-08-12T14:14:48;24.00;99.90
3308;DHT22;1666;48.898;9.182;2023-08-12T14:17:21;24.20;79.50
3308;DHT22;1666;48.898;9.182;2023-08-12T14:19:53;24.10;50.80
3308;DHT22;1666;48.898;9.182;2023-08-12T14:22:23;24.30;51.40
3308;DHT22;1666;48.898;9.182;2023-08-12T14:24:53;24.60;50.50
3308;DHT22;1666;48.898;9.182;2023-08-12T14:27:23;24.70;41.90
3308;DHT22;1666;48.898;9.182;2023-08-12T14:29:53;24.60;24.10
3308;DHT22;1666;48.898;9.182;2023-08-12T14:32:25;24.60;16.70
3308;DHT22;1666;48.898;9.182;2023-08-12T14:34:55;25.00;33.40
3308;DHT22;1666;48.898;9.182;2023-08-12T14:37:26;24.80;14.10
3308;DHT22;1666;48.898;9.182;2023-08-12T14:39:57;24.90;13.10
3308;DHT22;1666;48.898;9.182;2023-08-12T14:42:27;24.90;6.00
3308;DHT22;1666;48.898;9.182;2023-08-12T14:44:57;24.90;1.00
3308;DHT22;1666;48.898;9.182;2023-08-12T14:47:29;25.00;5.30
3308;DHT22;1666;48.898;9.182;2023-08-12T14:50:00;25.30;7.70
3308;DHT22;1666;48.898;9.182;2023-08-12T14:52:31;25.30;1.00
3308;DHT22;1666;48.898;9.182;2023-08-12T14:55:01;25.30;1.00
3308;DHT22;1666;48.898;9.182;2023-08-12T14:57:31;25.40;1.00
3308;DHT22;1666;48.898;9.182;2023-08-12T15:00:02;25.10;1.00
3308;DHT22;1666;48.898;9.182;2023-08-12T15:02:36;25.30;1.00
3308;DHT22;1666;48.898;9.182;2023-08-12T15:05:07;25.40;1.00
3308;DHT22;1666;48.898;9.182;2023-08-12T15:07:37;25.50;1.00
3308;DHT22;1666;48.898;9.182;2023-08-12T15:10:08;25.60;1.00
3308;DHT22;1666;48.898;9.182;2023-08-12T15:12:38;25.60;1.00
3308;DHT22;1666;48.898;9.182;2023-08-12T15:15:09;25.50;1.00
3308;DHT22;1666;48.898;9.182;2023-08-12T15:17:42;25.50;1.00
3308;DHT22;1666;48.898;9.182;2023-08-12T15:20:12;25.40;1.00
3308;DHT22;1666;48.898;9.182;2023-08-12T15:22:42;25.20;1.00
3308;DHT22;1666;48.898;9.182;2023-08-12T15:25:12;25.20;1.00
3308;DHT22;1666;48.898;9.182;2023-08-12T15:27:42;25.30;1.00
3308;DHT22;1666;48.898;9.182;2023-08-12T15:30:12;25.10;1.00
3308;DHT22;1666;48.898;9.182;2023-08-12T15:32:45;25.00;1.00
3308;DHT22;1666;48.898;9.182;2023-08-12T15:35:15;24.90;1.00
3308;DHT22;1666;48.898;9.182;2023-08-12T15:37:45;24.70;1.00
3308;DHT22;1666;48.898;9.182;2023-08-12T15:40:15;24.70;1.00
3308;DHT22;1666;48.898;9.182;2023-08-12T15:42:47;24.50;1.00
3308;DHT22;1666;48.898;9.182;2023-08-12T15:45:17;24.40;1.00
3308;DHT22;1666;48.898;9.182;2023-08-12T15:47:49;24.40;1.00
3308;DHT22;1666;48.898;9.182;2023-08-12T15:50:21;24.30;1.00
3308;DHT22;1666;48.898;9.182;2023-08-12T15:52:51;24.40;1.00
3308;DHT22;1666;48.898;9.182;2023-08-12T15:55:21;24.40;1.00
3308;DHT22;1666;48.898;9.182;2023-08-12T15:57:51;24.30;1.00
3308;DHT22;1666;48.898;9.182;2023-08-12T16:00:21;24.30;1.00
3308;DHT22;1666;48.898;9.182;2023-08-12T16:02:53;24.00;1.00
3308;DHT22;1666;48.898;9.182;2023-08-12T16:05:24;23.90;2.20
3308;DHT22;1666;48.898;9.182;2023-08-12T16:07:54;23.70;7.60
3308;DHT22;1666;48.898;9.182;2023-08-12T16:10:24;23.40;18.80
3308;DHT22;1666;48.898;9.182;2023-08-12T16:12:54;23.20;24.40
3308;DHT22;1666;48.898;9.182;2023-08-12T16:15:24;23.10;37.70
3308;DHT22;1666;48.898;9.182;2023-08-12T16:17:57;23.10;55.40
3308;DHT22;1666;48.898;9.182;2023-08-12T16:20:27;22.80;68.90
3308;DHT22;1666;48.898;9.182;2023-08-12T16:22:57;22.80;72.10
3308;DHT22;1666;48.898;9.182;2023-08-12T16:25:27;22.70;88.20
3308;DHT22;1666;48.898;9.182;2023-08-12T16:27:57;22.60;95.10
3308;DHT22;1666;48.898;9.182;2023-08-12T16:30:27;22.60;99.90
3308;DHT22;1666;48.898;9.182;2023-08-12T16:33:01;22.50;99.90
3308;DHT22;1666;48.898;9.182;2023-08-12T16:35:31;22.60;99.90
3308;DHT22;1666;48.898;9.182;2023-08-12T16:38:01;22.50;99.90
3308;DHT22;1666;48.898;9.182;2023-08-12T16:40:31;22.40;99.90